createdAt,value
2017-11-27T04:42:46.844Z,11.87
2017-11-27T04:45:13.640Z,11.70
2017-11-27T04:47:40.394Z,13.80
2017-11-27T04:50:08.117Z,11.03
2017-11-27T04:52:34.896Z,10.60
2017-11-27T04:55:01.689Z,9.30
2017-11-27T04:57:28.478Z,10.47
2017-11-27T04:59:55.235Z,10.27
2017-11-27T05:02:21.995Z,16.47
2017-11-27T05:04:48.819Z,9.20
2017-11-27T05:07:15.577Z,8.97
2017-11-27T05:09:42.341Z,10.33
2017-11-27T05:12:09.164Z,10.93
2017-11-27T05:14:35.941Z,14.27
2017-11-27T05:17:02.698Z,12.57
2017-11-27T05:19:29.511Z,10.73
2017-11-27T05:21:56.298Z,13.80
2017-11-27T05:24:23.076Z,12.63
2017-11-27T05:26:49.865Z,17.50
2017-11-27T05:29:16.633Z,19.23
2017-11-27T05:31:43.438Z,12.17
2017-11-27T05:34:10.224Z,5.13
2017-11-27T05:36:37.002Z,12.63
2017-11-27T05:39:03.812Z,13.50
2017-11-27T05:41:30.631Z,10.20
2017-11-27T05:43:57.397Z,12.27
2017-11-27T05:46:24.156Z,13.30
2017-11-27T05:48:50.963Z,25.13
2017-11-27T05:51:17.755Z,11.37
2017-11-27T05:53:44.496Z,11.73
2017-11-27T05:56:11.269Z,7.67
2017-11-27T05:58:38.053Z,11.07
2017-11-27T06:01:04.809Z,12.53
2017-11-27T06:03:31.622Z,10.60
2017-11-27T06:05:58.379Z,19.70
2017-11-27T06:08:25.131Z,14.47
2017-11-27T06:10:51.911Z,18.20
2017-11-27T06:13:18.685Z,14.63
2017-11-27T06:15:45.471Z,12.13
2017-11-27T06:18:12.261Z,17.30
2017-11-27T06:20:39.012Z,14.00
2017-11-27T06:23:05.784Z,15.37
2017-11-27T06:25:32.657Z,16.17
2017-11-27T06:27:59.452Z,12.97
2017-11-27T06:30:26.233Z,6.00
2017-11-27T06:32:53.051Z,10.67
2017-11-27T06:35:19.870Z,14.80
2017-11-27T06:37:46.659Z,10.23
2017-11-27T06:40:13.464Z,20.73
2017-11-27T06:42:40.317Z,18.57
2017-11-27T06:45:07.152Z,28.63
2017-11-27T06:47:33.935Z,14.30
2017-11-27T06:50:00.706Z,18.47
2017-11-27T06:52:27.487Z,16.37
2017-11-27T06:54:54.298Z,12.70
2017-11-27T06:57:21.078Z,16.90
2017-11-27T06:59:47.843Z,17.60
2017-11-27T07:02:14.627Z,15.17
2017-11-27T07:04:41.398Z,13.47
2017-11-27T07:07:08.204Z,22.73
2017-11-27T07:09:35.028Z,18.90
2017-11-27T07:12:01.807Z,19.57
2017-11-27T07:14:28.557Z,19.53
2017-11-27T07:16:55.349Z,12.40
2017-11-27T07:19:22.125Z,14.77
2017-11-27T07:21:48.894Z,16.37
2017-11-27T07:24:15.699Z,21.03
2017-11-27T07:26:42.483Z,16.20
2017-11-27T07:29:09.245Z,22.73
2017-11-27T07:31:36.048Z,17.10
2017-11-27T07:34:02.823Z,14.90
2017-11-27T07:36:29.585Z,17.20
2017-11-27T07:39:02.163Z,25.23
2017-11-27T07:41:28.921Z,22.43
2017-11-27T07:43:55.714Z,17.00
2017-11-27T07:46:22.535Z,17.33
2017-11-27T07:48:49.318Z,30.87
2017-11-27T07:51:16.103Z,20.43
2017-11-27T07:53:42.919Z,16.70
2017-11-27T07:56:09.699Z,21.60
2017-11-27T07:58:36.478Z,21.27
2017-11-27T08:01:03.273Z,10.97
2017-11-27T08:03:30.044Z,26.00
2017-11-27T08:05:56.812Z,22.47
2017-11-27T08:08:23.639Z,21.87
2017-11-27T08:10:50.432Z,18.53
2017-11-27T08:13:17.207Z,22.00
2017-11-27T08:15:44.032Z,24.93
2017-11-27T08:18:10.843Z,24.33
2017-11-27T08:20:37.604Z,22.90
2017-11-27T08:23:04.434Z,21.93
2017-11-27T08:25:31.207Z,23.93
2017-11-27T08:27:57.985Z,27.60
2017-11-27T08:30:24.807Z,15.10
2017-11-27T08:32:51.582Z,29.23
2017-11-27T08:35:18.337Z,20.67
2017-11-27T08:37:45.159Z,17.43
2017-11-27T08:40:11.917Z,27.60
2017-11-27T08:42:38.674Z,22.80
2017-11-27T08:45:05.503Z,21.80
2017-11-27T08:47:32.295Z,16.07
2017-11-27T08:49:59.084Z,25.33
2017-11-27T08:52:25.942Z,25.40
2017-11-27T08:54:52.710Z,26.90
2017-11-27T08:57:19.512Z,14.30
2017-11-27T08:59:46.342Z,24.07
2017-11-27T09:02:13.123Z,27.80
2017-11-27T09:04:39.897Z,20.73
2017-11-27T09:07:06.736Z,33.80
2017-11-27T09:09:33.551Z,23.30
2017-11-27T09:12:00.391Z,29.90
2017-11-27T09:14:27.884Z,35.40
2017-11-27T09:16:54.688Z,25.33
2017-11-27T09:19:21.731Z,28.40
2017-11-27T09:21:48.550Z,16.07
2017-11-27T09:24:15.333Z,21.70
2017-11-27T09:26:42.116Z,25.57
2017-11-27T09:29:08.973Z,20.20
2017-11-27T09:31:35.855Z,22.27
2017-11-27T09:34:02.657Z,20.90
2017-11-27T09:36:29.472Z,23.40
2017-11-27T09:38:56.253Z,25.37
2017-11-27T09:41:23.072Z,23.60
2017-11-27T09:43:49.933Z,26.73
2017-11-27T09:46:16.737Z,22.97
2017-11-27T09:48:43.516Z,22.93
2017-11-27T09:51:10.364Z,16.93
2017-11-27T09:53:37.144Z,24.23
2017-11-27T09:56:03.924Z,23.43
2017-11-27T09:58:30.745Z,23.73
2017-11-27T10:00:57.540Z,26.27
2017-11-27T10:03:24.320Z,16.63
2017-11-27T10:05:51.158Z,22.97
2017-11-27T10:08:17.931Z,31.03
2017-11-27T10:10:44.732Z,19.87
2017-11-27T10:13:11.567Z,27.03
2017-11-27T10:15:38.366Z,21.07
2017-11-27T10:18:05.146Z,26.20
2017-11-27T10:20:31.962Z,28.33
2017-11-27T10:22:58.764Z,14.50
2017-11-27T10:25:25.569Z,27.37
2017-11-27T10:27:52.377Z,20.27
2017-11-27T10:30:19.177Z,19.50
2017-11-27T10:32:46.008Z,16.90
2017-11-27T10:35:12.823Z,13.17
2017-11-27T10:37:39.606Z,21.93
2017-11-27T10:40:06.411Z,17.40
2017-11-27T10:42:33.238Z,13.90
2017-11-27T10:45:00.035Z,27.10
2017-11-27T10:47:26.808Z,16.03
2017-11-27T10:49:53.612Z,18.70
2017-11-27T10:52:20.397Z,18.97
2017-11-27T10:54:47.192Z,14.00
2017-11-27T10:57:13.982Z,22.20
2017-11-27T10:59:40.756Z,16.07
2017-11-27T11:02:07.538Z,21.60
2017-11-27T11:04:34.326Z,20.93
2017-11-27T11:07:01.116Z,12.70
2017-11-27T11:09:27.901Z,18.07
2017-11-27T11:11:54.730Z,12.27
2017-11-27T11:14:21.523Z,12.00
2017-11-27T11:16:48.292Z,9.93
2017-11-27T11:19:15.147Z,20.77
2017-11-27T11:21:41.954Z,6.83
2017-11-27T11:24:08.757Z,14.23
2017-11-27T11:26:35.587Z,12.97
2017-11-27T11:29:02.391Z,10.77
2017-11-27T11:31:29.149Z,10.30
2017-11-27T11:33:55.955Z,11.50
2017-11-27T11:36:22.744Z,15.07
2017-11-27T11:38:49.494Z,12.37
2017-11-27T11:41:16.284Z,10.43
2017-11-27T11:43:43.065Z,13.40
2017-11-27T11:46:09.837Z,7.97
2017-11-27T11:48:36.654Z,12.13
2017-11-27T11:51:03.409Z,8.93
2017-11-27T11:53:30.185Z,11.07
2017-11-27T11:55:57.000Z,11.70
2017-11-27T11:58:23.825Z,8.07
2017-11-27T12:00:50.631Z,14.77
2017-11-27T12:03:17.444Z,11.60
2017-11-27T12:05:44.209Z,10.87
2017-11-27T12:08:10.988Z,7.50
2017-11-27T12:10:37.809Z,8.27
2017-11-27T12:13:04.588Z,8.50
2017-11-27T12:15:31.351Z,6.23
2017-11-27T12:17:58.155Z,9.37
2017-11-27T12:20:24.941Z,6.37
2017-11-27T12:22:51.744Z,9.57
2017-11-27T12:25:18.545Z,4.67
2017-11-27T12:27:45.298Z,6.97
2017-11-27T12:30:12.077Z,8.73
2017-11-27T12:32:38.878Z,8.40
2017-11-27T12:35:05.649Z,7.33
2017-11-27T12:37:32.439Z,10.40
2017-11-27T12:39:59.257Z,8.00
2017-11-27T12:42:26.008Z,7.93
2017-11-27T12:44:52.784Z,7.50
2017-11-27T12:47:19.611Z,3.10
2017-11-27T12:49:46.458Z,8.60
2017-11-27T12:52:13.309Z,4.27
2017-11-27T12:54:40.143Z,10.53
2017-11-27T12:57:06.931Z,5.30
2017-11-27T12:59:33.728Z,5.30
2017-11-27T13:02:00.520Z,7.93
2017-11-27T13:04:27.268Z,7.80
2017-11-27T13:06:54.036Z,5.87
2017-11-27T13:09:20.843Z,3.97
2017-11-27T13:11:47.683Z,7.13
2017-11-27T13:14:14.439Z,9.00
2017-11-27T13:16:41.226Z,7.97
2017-11-27T13:19:08.008Z,5.40
2017-11-27T13:21:34.764Z,4.00
2017-11-27T13:24:01.566Z,4.53
2017-11-27T13:26:28.333Z,5.47
2017-11-27T13:28:55.105Z,4.27
2017-11-27T13:31:21.936Z,3.47
2017-11-27T13:33:48.726Z,4.57
2017-11-27T13:36:15.489Z,5.83
2017-11-27T13:38:42.282Z,4.77
2017-11-27T13:41:09.049Z,2.63
2017-11-27T13:43:35.824Z,4.43
2017-11-27T13:46:02.655Z,4.23
2017-11-27T13:48:29.451Z,4.43
2017-11-27T13:50:56.240Z,5.97
2017-11-27T13:53:23.049Z,7.93
2017-11-27T13:55:49.809Z,6.70
2017-11-27T13:58:16.625Z,4.70
2017-11-27T14:00:43.442Z,5.17
2017-11-27T14:03:10.196Z,8.33
2017-11-27T14:05:37.006Z,6.43
2017-11-27T14:08:03.832Z,12.13
2017-11-27T14:10:30.610Z,6.73
2017-11-27T14:12:57.380Z,6.77
2017-11-27T14:15:24.205Z,5.23
2017-11-27T14:17:50.950Z,7.00
2017-11-27T14:20:17.724Z,4.63
2017-11-27T14:22:44.517Z,7.80
2017-11-27T14:25:11.286Z,6.13
2017-11-27T14:27:38.077Z,8.73
2017-11-27T14:30:04.918Z,7.80
2017-11-27T14:32:31.721Z,8.37
2017-11-27T14:34:58.532Z,5.87
2017-11-27T14:37:25.314Z,5.57
2017-11-27T14:39:52.103Z,4.80
2017-11-27T14:42:18.891Z,6.80
2017-11-27T14:44:45.740Z,3.90
2017-11-27T14:47:12.536Z,7.50
2017-11-27T14:49:39.321Z,9.47
2017-11-27T14:52:06.129Z,7.30
2017-11-27T14:54:32.920Z,10.80
2017-11-27T14:56:59.713Z,7.40
2017-11-27T14:59:26.544Z,7.43
2017-11-27T15:01:53.337Z,12.97
2017-11-27T15:04:20.133Z,9.80
2017-11-27T15:06:46.960Z,7.80
2017-11-27T15:09:13.777Z,8.97
2017-11-27T15:11:40.584Z,9.60
2017-11-27T15:14:07.426Z,10.63
2017-11-27T15:16:34.215Z,5.43
2017-11-27T15:19:01.005Z,9.60
2017-11-27T15:21:27.838Z,7.80
2017-11-27T15:23:54.637Z,11.77
2017-11-27T15:26:21.432Z,11.47
2017-11-27T15:28:48.276Z,8.40
2017-11-27T15:31:15.091Z,12.40
2017-11-27T15:33:41.922Z,11.80
2017-11-27T15:36:08.735Z,10.23
2017-11-27T15:38:35.544Z,12.10
2017-11-27T15:41:02.359Z,8.50
2017-11-27T15:43:29.162Z,9.40
2017-11-27T15:45:55.960Z,11.73
2017-11-27T15:48:22.785Z,11.73
2017-11-27T15:50:49.658Z,11.07
2017-11-27T15:53:16.446Z,11.50
2017-11-27T15:55:43.255Z,13.10
2017-11-27T15:58:10.095Z,15.30
2017-11-27T16:00:36.915Z,8.63
2017-11-27T16:03:03.731Z,14.20
2017-11-27T16:05:30.600Z,10.20
2017-11-27T16:07:57.522Z,12.17
2017-11-27T16:10:24.362Z,11.37
2017-11-27T16:12:51.261Z,13.20
2017-11-27T16:15:18.035Z,14.30
2017-11-27T16:17:44.827Z,13.97
2017-11-27T16:20:11.640Z,9.40
2017-11-27T16:22:38.432Z,17.27
2017-11-27T16:25:05.206Z,14.10
2017-11-27T16:27:32.013Z,17.73
2017-11-27T16:29:58.813Z,12.37
2017-11-27T16:32:25.623Z,13.70
2017-11-27T16:34:52.425Z,10.53
2017-11-27T16:37:19.250Z,10.37
2017-11-27T16:39:46.050Z,9.70
2017-11-27T16:42:12.908Z,5.27
2017-11-27T16:44:39.653Z,10.10
2017-11-27T16:47:06.459Z,8.20
2017-11-27T16:49:33.322Z,10.33
2017-11-27T16:52:00.101Z,8.03
2017-11-27T16:54:26.905Z,11.50
2017-11-27T16:56:53.773Z,9.02
2017-11-27T16:59:20.992Z,11.17
2017-11-27T17:01:47.808Z,7.70
2017-11-27T17:04:14.672Z,12.27
2017-11-27T17:06:41.465Z,11.93
2017-11-27T17:09:08.238Z,4.63
2017-11-27T17:11:35.049Z,10.20
2017-11-27T17:14:01.856Z,4.10
2017-11-27T17:16:28.645Z,6.80
2017-11-27T17:18:55.486Z,4.47
2017-11-27T17:21:22.261Z,7.17
2017-11-27T17:23:49.072Z,8.07
2017-11-27T17:26:15.897Z,10.90
2017-11-27T17:28:42.772Z,8.13
2017-11-27T17:31:09.573Z,7.00
2017-11-27T17:33:36.414Z,7.97
2017-11-27T17:36:03.645Z,8.30
2017-11-27T17:38:30.448Z,8.43
2017-11-27T17:40:57.286Z,6.30
2017-11-27T17:43:24.129Z,8.87
2017-11-27T17:45:51.066Z,13.70
2017-11-27T17:48:17.941Z,8.23
2017-11-27T17:50:44.799Z,8.53
2017-11-27T17:53:11.626Z,8.40
2017-11-27T17:55:38.450Z,11.70
2017-11-27T17:58:05.256Z,11.80
2017-11-27T18:00:32.076Z,12.30
2017-11-27T18:02:58.919Z,12.60
2017-11-27T18:05:25.707Z,14.80
2017-11-27T18:07:52.558Z,14.77
2017-11-27T18:10:19.419Z,9.60
2017-11-27T18:12:46.249Z,18.23
2017-11-27T18:15:13.048Z,14.20
2017-11-27T18:17:39.879Z,9.70
2017-11-27T18:20:06.685Z,15.70
2017-11-27T18:22:33.524Z,12.10
2017-11-27T18:25:00.353Z,9.27
2017-11-27T18:27:27.141Z,15.00
2017-11-27T18:29:53.948Z,9.97
2017-11-27T18:32:20.794Z,9.37
2017-11-27T18:34:47.573Z,13.53
2017-11-27T18:37:14.392Z,8.77
2017-11-27T18:39:41.220Z,7.13
2017-11-27T18:42:08.036Z,4.57
2017-11-27T18:44:34.800Z,6.53
2017-11-27T18:47:01.626Z,7.10
2017-11-27T18:49:28.466Z,5.23
2017-11-27T18:51:55.330Z,11.83
2017-11-27T18:54:22.180Z,1.70
2017-11-27T18:56:48.981Z,6.20
2017-11-27T18:59:15.768Z,5.37
2017-11-27T19:01:42.628Z,9.90
2017-11-27T19:04:09.415Z,2.33
2017-11-27T19:06:36.209Z,6.63
2017-11-27T19:09:03.080Z,6.33
2017-11-27T19:11:29.964Z,14.10
2017-11-27T19:13:56.810Z,9.07
2017-11-27T19:16:23.652Z,8.17
2017-11-27T19:18:50.514Z,10.10
2017-11-27T19:21:17.334Z,14.70
2017-11-27T19:23:44.179Z,10.23
2017-11-27T19:26:10.991Z,18.37
2017-11-27T19:28:37.794Z,15.67
2017-11-27T19:31:04.631Z,11.17
2017-11-27T19:33:31.429Z,15.80
2017-11-27T19:35:58.234Z,13.40
2017-11-27T19:38:25.107Z,11.93
2017-11-27T19:40:51.927Z,11.83
2017-11-27T19:43:18.832Z,11.70
2017-11-27T19:45:45.706Z,15.33
2017-11-27T19:48:12.620Z,19.03
2017-11-27T19:50:39.452Z,8.20
2017-11-27T19:53:06.317Z,16.40
2017-11-27T19:55:33.138Z,15.40
2017-11-27T19:57:59.944Z,15.13
2017-11-27T20:00:26.772Z,9.97
2017-11-27T20:02:53.598Z,7.20
2017-11-27T20:05:20.372Z,11.57
2017-11-27T20:07:47.204Z,11.63
2017-11-27T20:10:13.991Z,18.30
2017-11-27T20:12:40.819Z,10.83
2017-11-27T20:15:07.658Z,15.00
2017-11-27T20:17:34.517Z,18.47
2017-11-27T20:20:01.455Z,13.70
2017-11-27T20:22:28.441Z,16.67
2017-11-27T20:24:55.353Z,14.33
2017-11-27T20:27:22.187Z,11.80
2017-11-27T20:29:49.018Z,9.37
2017-11-27T20:32:15.888Z,11.80
2017-11-27T20:34:42.690Z,3.30
2017-11-27T20:37:09.523Z,5.73
2017-11-27T20:39:36.297Z,5.43
2017-11-27T20:42:03.206Z,4.83
2017-11-27T20:44:30.038Z,9.47
2017-11-27T20:46:56.879Z,7.47
2017-11-27T20:49:23.705Z,17.07
2017-11-27T20:51:50.573Z,10.13
2017-11-27T20:54:18.246Z,6.30
2017-11-27T20:56:45.040Z,3.37
2017-11-27T20:59:11.875Z,2.73
2017-11-27T21:01:38.645Z,1.33
2017-11-27T21:04:05.389Z,4.87
2017-11-27T21:06:32.266Z,3.33
2017-11-27T21:08:59.050Z,2.27
2017-11-27T21:11:25.859Z,1.67
2017-11-27T21:13:52.669Z,1.37
2017-11-27T21:16:19.478Z,1.77
2017-11-27T21:18:46.278Z,2.33
2017-11-27T21:21:13.088Z,1.30
2017-11-27T21:23:39.920Z,2.80
2017-11-27T21:26:06.726Z,1.27
2017-11-27T21:28:33.525Z,1.30
2017-11-27T21:31:00.313Z,2.27
2017-11-27T21:33:27.124Z,1.53
2017-11-27T21:35:53.979Z,1.20
2017-11-27T21:38:20.776Z,1.17
2017-11-27T21:40:47.561Z,3.30
2017-11-27T21:43:14.373Z,1.37
2017-11-27T21:45:41.163Z,0.60
2017-11-27T21:48:07.974Z,1.77
2017-11-27T21:50:34.819Z,1.43
2017-11-27T21:53:01.748Z,1.53
2017-11-27T21:55:28.524Z,2.90
2017-11-27T21:57:55.300Z,0.80
2017-11-27T22:00:22.105Z,1.10
2017-11-27T22:02:48.846Z,1.70
2017-11-27T22:05:15.673Z,1.67
2017-11-27T22:07:42.441Z,1.17
2017-11-27T22:10:09.236Z,2.00
2017-11-27T22:12:36.072Z,1.20
2017-11-27T22:15:02.873Z,2.93
2017-11-27T22:17:29.701Z,0.90
2017-11-27T22:19:56.492Z,0.40
2017-11-27T22:22:23.271Z,0.67
2017-11-27T22:24:50.050Z,0.60
2017-11-27T22:27:16.852Z,1.10
2017-11-27T22:29:43.633Z,0.97
2017-11-27T22:32:10.421Z,1.77
2017-11-27T22:34:37.228Z,1.73
2017-11-27T22:37:04.016Z,0.90
2017-11-27T22:39:30.809Z,0.60
2017-11-27T22:41:57.622Z,2.93
2017-11-27T22:44:24.452Z,1.10
2017-11-27T22:46:51.242Z,1.10
2017-11-27T22:49:18.069Z,1.50
2017-11-27T22:51:44.885Z,3.30
2017-11-27T22:54:11.669Z,2.53
2017-11-27T22:56:38.498Z,1.10
2017-11-27T22:59:05.370Z,3.20
2017-11-27T23:01:32.157Z,1.70
2017-11-27T23:03:58.964Z,2.00
2017-11-27T23:06:25.732Z,2.70
2017-11-27T23:08:52.519Z,0.50
